sensor_id;sensor_type;location;lat;lon;timestamp;temperature;humidity
57078;DHT22;75967;50.970;4.574;2024-01-30T00:01:16;9.50;87.70
57078;DHT22;75967;50.970;4.574;2024-01-30T00:03:41;9.50;87.90
57078;DHT22;75967;50.970;4.574;2024-01-30T00:06:08;9.60;87.70
57078;DHT22;75967;50.970;4.574;2024-01-30T00:08:34;9.70;87.10
57078;DHT22;75967;50.970;4.574;2024-01-30T00:11:00;9.80;86.70
57078;DHT22;75967;50.970;4.574;2024-01-30T00:13:26;9.70;86.80
57078;DHT22;75967;50.970;4.574;2024-01-30T00:15:52;9.70;87.50
57078;DHT22;75967;50.970;4.574;2024-01-30T00:18:18;9.60;87.40
57078;DHT22;75967;50.970;4.574;2024-01-30T00:20:44;9.60;87.60
57078;DHT22;75967;50.970;4.574;2024-01-30T00:23:10;9.60;87.80
57078;DHT22;75967;50.970;4.574;2024-01-30T00:25:35;9.60;87.80
57078;DHT22;75967;50.970;4.574;2024-01-30T00:28:01;9.60;87.70
57078;DHT22;75967;50.970;4.574;2024-01-30T00:30:27;9.60;87.70
57078;DHT22;75967;50.970;4.574;2024-01-30T00:32:53;9.60;87.70
57078;DHT22;75967;50.970;4.574;2024-01-30T00:35:19;9.70;87.30
57078;DHT22;75967;50.970;4.574;2024-01-30T00:37:47;9.70;87.20
57078;DHT22;75967;50.970;4.574;2024-01-30T00:40:13;9.70;87.40
57078;DHT22;75967;50.970;4.574;2024-01-30T00:42:44;9.90;87.10
57078;DHT22;75967;50.970;4.574;2024-01-30T00:45:16;9.90;86.50
57078;DHT22;75967;50.970;4.574;2024-01-30T00:47:42;10.00;86.40
57078;DHT22;75967;50.970;4.574;2024-01-30T00:50:08;10.20;85.50
57078;DHT22;75967;50.970;4.574;2024-01-30T00:52:35;10.30;84.20
57078;DHT22;75967;50.970;4.574;2024-01-30T00:55:01;10.30;84.10
57078;DHT22;75967;50.970;4.574;2024-01-30T00:57:26;10.40;84.10
57078;DHT22;75967;50.970;4.574;2024-01-30T00:59:52;10.40;82.90
57078;DHT22;75967;50.970;4.574;2024-01-30T01:02:18;10.40;83.10
57078;DHT22;75967;50.970;4.574;2024-01-30T01:04:44;10.40;83.10
57078;DHT22;75967;50.970;4.574;2024-01-30T01:07:11;10.30;84.20
57078;DHT22;75967;50.970;4.574;2024-01-30T01:09:37;10.30;85.00
57078;DHT22;75967;50.970;4.574;2024-01-30T01:12:03;10.40;84.90
57078;DHT22;75967;50.970;4.574;2024-01-30T01:14:29;10.40;85.00
57078;DHT22;75967;50.970;4.574;2024-01-30T01:16:55;10.40;84.90
57078;DHT22;75967;50.970;4.574;2024-01-30T01:19:20;10.40;84.80
57078;DHT22;75967;50.970;4.574;2024-01-30T01:21:46;10.40;84.70
57078;DHT22;75967;50.970;4.574;2024-01-30T01:24:12;10.40;85.30
57078;DHT22;75967;50.970;4.574;2024-01-30T01:26:38;10.40;84.40
57078;DHT22;75967;50.970;4.574;2024-01-30T01:29:03;10.40;84.20
57078;DHT22;75967;50.970;4.574;2024-01-30T01:31:36;10.40;84.40
57078;DHT22;75967;50.970;4.574;2024-01-30T01:34:05;10.40;84.60
57078;DHT22;75967;50.970;4.574;2024-01-30T01:36:31;10.30;84.50
57078;DHT22;75967;50.970;4.574;2024-01-30T01:38:57;10.30;84.70
57078;DHT22;75967;50.970;4.574;2024-01-30T01:41:22;10.30;84.70
57078;DHT22;75967;50.970;4.574;2024-01-30T01:43:48;10.30;84.70
57078;DHT22;75967;50.970;4.574;2024-01-30T01:46:14;10.30;84.60
57078;DHT22;75967;50.970;4.574;2024-01-30T01:48:40;10.50;84.40
57078;DHT22;75967;50.970;4.574;2024-01-30T01:51:09;10.50;83.70
57078;DHT22;75967;50.970;4.574;2024-01-30T01:53:35;10.50;83.60
57078;DHT22;75967;50.970;4.574;2024-01-30T01:56:01;10.60;83.40
57078;DHT22;75967;50.970;4.574;2024-01-30T01:58:28;10.60;82.90
57078;DHT22;75967;50.970;4.574;2024-01-30T02:00:56;10.60;83.00
57078;DHT22;75967;50.970;4.574;2024-01-30T02:03:21;10.60;83.30
57078;DHT22;75967;50.970;4.574;2024-01-30T02:05:48;10.50;82.80
57078;DHT22;75967;50.970;4.574;2024-01-30T02:08:14;10.50;83.40
57078;DHT22;75967;50.970;4.574;2024-01-30T02:10:40;10.40;83.40
57078;DHT22;75967;50.970;4.574;2024-01-30T02:13:06;10.40;83.70
57078;DHT22;75967;50.970;4.574;2024-01-30T02:15:32;10.20;84.50
57078;DHT22;75967;50.970;4.574;2024-01-30T02:17:57;10.30;85.00
57078;DHT22;75967;50.970;4.574;2024-01-30T02:20:25;10.00;84.90
57078;DHT22;75967;50.970;4.574;2024-01-30T02:22:52;10.00;85.00
57078;DHT22;75967;50.970;4.574;2024-01-30T02:25:19;10.00;85.10
57078;DHT22;75967;50.970;4.574;2024-01-30T02:27:45;9.90;85.50
57078;DHT22;75967;50.970;4.574;2024-01-30T02:30:11;9.90;86.40
57078;DHT22;75967;50.970;4.574;2024-01-30T02:32:37;9.90;86.20
57078;DHT22;75967;50.970;4.574;2024-01-30T02:35:03;9.90;85.10
57078;DHT22;75967;50.970;4.574;2024-01-30T02:37:28;9.80;84.80
57078;DHT22;75967;50.970;4.574;2024-01-30T02:39:54;9.60;85.20
57078;DHT22;75967;50.970;4.574;2024-01-30T02:42:20;9.60;85.00
57078;DHT22;75967;50.970;4.574;2024-01-30T02:44:45;9.50;85.00
57078;DHT22;75967;50.970;4.574;2024-01-30T02:47:11;9.40;85.20
57078;DHT22;75967;50.970;4.574;2024-01-30T02:49:37;9.30;85.60
57078;DHT22;75967;50.970;4.574;2024-01-30T02:52:03;9.30;86.00
57078;DHT22;75967;50.970;4.574;2024-01-30T02:54:28;9.30;85.30
57078;DHT22;75967;50.970;4.574;2024-01-30T02:56:56;9.10;85.80
57078;DHT22;75967;50.970;4.574;2024-01-30T02:59:21;9.10;87.20
57078;DHT22;75967;50.970;4.574;2024-01-30T03:01:47;9.20;87.60
57078;DHT22;75967;50.970;4.574;2024-01-30T03:04:13;9.20;87.30
57078;DHT22;75967;50.970;4.574;2024-01-30T03:06:39;9.20;88.20
57078;DHT22;75967;50.970;4.574;2024-01-30T03:09:09;9.40;89.90
57078;DHT22;75967;50.970;4.574;2024-01-30T03:11:35;9.60;89.90
57078;DHT22;75967;50.970;4.574;2024-01-30T03:14:00;9.70;89.00
57078;DHT22;75967;50.970;4.574;2024-01-30T03:16:26;9.80;89.50
57078;DHT22;75967;50.970;4.574;2024-01-30T03:18:52;10.10;87.90
57078;DHT22;75967;50.970;4.574;2024-01-30T03:21:18;10.40;86.70
57078;DHT22;75967;50.970;4.574;2024-01-30T03:23:43;10.50;86.60
57078;DHT22;75967;50.970;4.574;2024-01-30T03:26:09;10.60;85.70
57078;DHT22;75967;50.970;4.574;2024-01-30T03:28:36;10.70;86.20
57078;DHT22;75967;50.970;4.574;2024-01-30T03:31:01;10.70;86.60
57078;DHT22;75967;50.970;4.574;2024-01-30T03:33:27;10.70;86.50
57078;DHT22;75967;50.970;4.574;2024-01-30T03:35:53;11.00;85.30
57078;DHT22;75967;50.970;4.574;2024-01-30T03:38:19;11.00;85.40
57078;DHT22;75967;50.970;4.574;2024-01-30T03:40:45;11.00;85.70
57078;DHT22;75967;50.970;4.574;2024-01-30T03:43:10;11.10;85.00
57078;DHT22;75967;50.970;4.574;2024-01-30T03:45:36;11.30;83.90
57078;DHT22;75967;50.970;4.574;2024-01-30T03:48:01;11.50;83.50
57078;DHT22;75967;50.970;4.574;2024-01-30T03:50:27;11.60;82.80
57078;DHT22;75967;50.970;4.574;2024-01-30T03:52:53;11.60;82.50
57078;DHT22;75967;50.970;4.574;2024-01-30T03:55:19;11.60;82.70
57078;DHT22;75967;50.970;4.574;2024-01-30T03:57:44;11.50;83.10
57078;DHT22;75967;50.970;4.574;2024-01-30T04:00:10;11.40;84.10
57078;DHT22;75967;50.970;4.574;2024-01-30T04:02:36;11.30;84.50
57078;DHT22;75967;50.970;4.574;2024-01-30T04:05:02;11.30;84.70
57078;DHT22;75967;50.970;4.574;2024-01-30T04:07:27;11.30;84.70
57078;DHT22;75967;50.970;4.574;2024-01-30T04:09:54;11.20;84.50
57078;DHT22;75967;50.970;4.574;2024-01-30T04:12:20;11.10;84.50
57078;DHT22;75967;50.970;4.574;2024-01-30T04:14:45;10.90;85.10
57078;DHT22;75967;50.970;4.574;2024-01-30T04:17:11;10.80;85.40
57078;DHT22;75967;50.970;4.574;2024-01-30T04:19:37;10.70;85.90
57078;DHT22;75967;50.970;4.574;2024-01-30T04:22:04;10.60;86.30
57078;DHT22;75967;50.970;4.574;2024-01-30T04:24:29;10.50;86.70
57078;DHT22;75967;50.970;4.574;2024-01-30T04:26:55;10.50;87.00
57078;DHT22;75967;50.970;4.574;2024-01-30T04:29:21;10.50;87.20
57078;DHT22;75967;50.970;4.574;2024-01-30T04:31:47;10.40;87.30
57078;DHT22;75967;50.970;4.574;2024-01-30T04:34:13;10.40;87.50
57078;DHT22;75967;50.970;4.574;2024-01-30T04:36:39;10.30;87.60
57078;DHT22;75967;50.970;4.574;2024-01-30T04:39:05;10.40;87.50
57078;DHT22;75967;50.970;4.574;2024-01-30T04:41:30;10.50;87.50
57078;DHT22;75967;50.970;4.574;2024-01-30T04:43:57;10.60;86.70
57078;DHT22;75967;50.970;4.574;2024-01-30T04:46:23;10.70;86.20
57078;DHT22;75967;50.970;4.574;2024-01-30T04:48:49;10.60;86.10
57078;DHT22;75967;50.970;4.574;2024-01-30T04:51:14;10.60;86.10
57078;DHT22;75967;50.970;4.574;2024-01-30T04:53:40;10.70;86.10
57078;DHT22;75967;50.970;4.574;2024-01-30T04:56:06;10.60;86.50
57078;DHT22;75967;50.970;4.574;2024-01-30T04:58:31;10.50;87.00
57078;DHT22;75967;50.970;4.574;2024-01-30T05:00:57;10.50;87.00
57078;DHT22;75967;50.970;4.574;2024-01-30T05:03:23;10.40;87.20
57078;DHT22;75967;50.970;4.574;2024-01-30T05:05:49;10.40;87.50
57078;DHT22;75967;50.970;4.574;2024-01-30T05:08:15;10.40;87.80
57078;DHT22;75967;50.970;4.574;2024-01-30T05:10:41;10.40;87.20
57078;DHT22;75967;50.970;4.574;2024-01-30T05:13:06;10.50;87.00
57078;DHT22;75967;50.970;4.574;2024-01-30T05:15:32;10.50;86.90
57078;DHT22;75967;50.970;4.574;2024-01-30T05:17:57;10.50;86.70
57078;DHT22;75967;50.970;4.574;2024-01-30T05:20:23;10.50;86.60
57078;DHT22;75967;50.970;4.574;2024-01-30T05:22:49;10.60;86.50
57078;DHT22;75967;50.970;4.574;2024-01-30T05:25:14;10.60;86.50
57078;DHT22;75967;50.970;4.574;2024-01-30T05:27:40;10.60;86.50
57078;DHT22;75967;50.970;4.574;2024-01-30T05:30:06;10.80;85.70
57078;DHT22;75967;50.970;4.574;2024-01-30T05:32:32;10.90;84.90
57078;DHT22;75967;50.970;4.574;2024-01-30T05:34:58;10.80;85.30
57078;DHT22;75967;50.970;4.574;2024-01-30T05:37:24;10.70;85.60
57078;DHT22;75967;50.970;4.574;2024-01-30T05:39:49;10.70;85.80
57078;DHT22;75967;50.970;4.574;2024-01-30T05:42:15;10.60;86.10
57078;DHT22;75967;50.970;4.574;2024-01-30T05:44:42;10.60;86.30
57078;DHT22;75967;50.970;4.574;2024-01-30T05:47:08;10.70;85.90
57078;DHT22;75967;50.970;4.574;2024-01-30T05:49:34;10.70;85.40
57078;DHT22;75967;50.970;4.574;2024-01-30T05:52:02;10.70;85.60
57078;DHT22;75967;50.970;4.574;2024-01-30T05:54:27;10.60;86.20
57078;DHT22;75967;50.970;4.574;2024-01-30T05:56:53;10.50;86.70
57078;DHT22;75967;50.970;4.574;2024-01-30T05:59:19;10.60;86.80
57078;DHT22;75967;50.970;4.574;2024-01-30T06:01:48;10.50;86.90
57078;DHT22;75967;50.970;4.574;2024-01-30T06:04:14;10.60;86.60
57078;DHT22;75967;50.970;4.574;2024-01-30T06:06:40;10.60;86.30
57078;DHT22;75967;50.970;4.574;2024-01-30T06:09:06;10.60;86.30
57078;DHT22;75967;50.970;4.574;2024-01-30T06:11:34;10.70;86.20
57078;DHT22;75967;50.970;4.574;2024-01-30T06:14:00;10.50;87.20
57078;DHT22;75967;50.970;4.574;2024-01-30T06:16:26;10.60;86.60
57078;DHT22;75967;50.970;4.574;2024-01-30T06:18:55;10.50;86.80
57078;DHT22;75967;50.970;4.574;2024-01-30T06:21:21;10.50;87.20
57078;DHT22;75967;50.970;4.574;2024-01-30T06:23:46;10.40;87.30
57078;DHT22;75967;50.970;4.574;2024-01-30T06:26:12;10.50;87.00
57078;DHT22;75967;50.970;4.574;2024-01-30T06:28:38;10.60;86.70
57078;DHT22;75967;50.970;4.574;2024-01-30T06:31:03;10.60;86.50
57078;DHT22;75967;50.970;4.574;2024-01-30T06:33:29;10.60;86.20
57078;DHT22;75967;50.970;4.574;2024-01-30T06:35:55;10.60;86.50
57078;DHT22;75967;50.970;4.574;2024-01-30T06:38:20;10.60;86.70
57078;DHT22;75967;50.970;4.574;2024-01-30T06:40:46;10.80;86.00
57078;DHT22;75967;50.970;4.574;2024-01-30T06:43:12;10.80;85.60
57078;DHT22;75967;50.970;4.574;2024-01-30T06:45:37;10.80;85.60
57078;DHT22;75967;50.970;4.574;2024-01-30T06:48:03;10.80;85.40
57078;DHT22;75967;50.970;4.574;2024-01-30T06:50:29;10.80;86.10
57078;DHT22;75967;50.970;4.574;2024-01-30T06:52:55;10.80;85.70
57078;DHT22;75967;50.970;4.574;2024-01-30T06:55:20;10.90;85.40
57078;DHT22;75967;50.970;4.574;2024-01-30T06:57:46;11.20;84.60
57078;DHT22;75967;50.970;4.574;2024-01-30T07:00:12;11.20;84.10
57078;DHT22;75967;50.970;4.574;2024-01-30T07:02:39;11.10;84.40
57078;DHT22;75967;50.970;4.574;2024-01-30T07:05:04;11.10;84.80
57078;DHT22;75967;50.970;4.574;2024-01-30T07:07:30;11.30;83.60
57078;DHT22;75967;50.970;4.574;2024-01-30T07:09:56;11.30;83.70
57078;DHT22;75967;50.970;4.574;2024-01-30T07:12:22;11.30;84.00
57078;DHT22;75967;50.970;4.574;2024-01-30T07:14:50;11.30;84.20
57078;DHT22;75967;50.970;4.574;2024-01-30T07:17:15;11.40;83.40
57078;DHT22;75967;50.970;4.574;2024-01-30T07:19:41;11.30;83.60
57078;DHT22;75967;50.970;4.574;2024-01-30T07:22:07;11.20;84.30
57078;DHT22;75967;50.970;4.574;2024-01-30T07:24:33;11.30;84.60
57078;DHT22;75967;50.970;4.574;2024-01-30T07:26:59;11.40;84.10
57078;DHT22;75967;50.970;4.574;2024-01-30T07:29:24;11.40;83.80
57078;DHT22;75967;50.970;4.574;2024-01-30T07:31:50;11.40;83.70
57078;DHT22;75967;50.970;4.574;2024-01-30T07:34:16;11.40;83.50
57078;DHT22;75967;50.970;4.574;2024-01-30T07:36:42;11.40;83.60
57078;DHT22;75967;50.970;4.574;2024-01-30T07:39:07;11.40;83.60
57078;DHT22;75967;50.970;4.574;2024-01-30T07:41:33;11.50;83.80
57078;DHT22;75967;50.970;4.574;2024-01-30T07:43:59;11.60;83.20
57078;DHT22;75967;50.970;4.574;2024-01-30T07:46:25;11.80;82.40
57078;DHT22;75967;50.970;4.574;2024-01-30T07:48:50;11.90;82.10
57078;DHT22;75967;50.970;4.574;2024-01-30T07:51:16;11.90;82.10
57078;DHT22;75967;50.970;4.574;2024-01-30T07:53:42;12.20;81.20
57078;DHT22;75967;50.970;4.574;2024-01-30T07:56:07;12.30;80.50
57078;DHT22;75967;50.970;4.574;2024-01-30T07:58:33;12.50;79.50
57078;DHT22;75967;50.970;4.574;2024-01-30T08:00:58;12.70;78.70
57078;DHT22;75967;50.970;4.574;2024-01-30T08:03:25;12.50;79.60
57078;DHT22;75967;50.970;4.574;2024-01-30T08:05:51;12.40;80.20
57078;DHT22;75967;50.970;4.574;2024-01-30T08:08:17;12.50;80.10
57078;DHT22;75967;50.970;4.574;2024-01-30T08:10:43;12.60;79.90
57078;DHT22;75967;50.970;4.574;2024-01-30T08:13:08;12.50;79.90
57078;DHT22;75967;50.970;4.574;2024-01-30T08:15:34;12.40;80.80
57078;DHT22;75967;50.970;4.574;2024-01-30T08:18:00;12.50;80.30
57078;DHT22;75967;50.970;4.574;2024-01-30T08:20:26;12.40;80.60
57078;DHT22;75967;50.970;4.574;2024-01-30T08:22:52;12.20;80.60
57078;DHT22;75967;50.970;4.574;2024-01-30T08:25:18;12.40;80.90
57078;DHT22;75967;50.970;4.574;2024-01-30T08:27:44;12.40;80.90
57078;DHT22;75967;50.970;4.574;2024-01-30T08:30:10;12.30;81.10
57078;DHT22;75967;50.970;4.574;2024-01-30T08:32:36;12.40;81.30
57078;DHT22;75967;50.970;4.574;2024-01-30T08:35:02;12.40;80.60
57078;DHT22;75967;50.970;4.574;2024-01-30T08:37:30;12.70;79.80
57078;DHT22;75967;50.970;4.574;2024-01-30T08:39:56;12.70;79.80
57078;DHT22;75967;50.970;4.574;2024-01-30T08:42:22;12.60;80.30
57078;DHT22;75967;50.970;4.574;2024-01-30T08:44:48;12.60;80.40
57078;DHT22;75967;50.970;4.574;2024-01-30T08:47:15;12.50;80.80
57078;DHT22;75967;50.970;4.574;2024-01-30T08:49:42;12.70;80.10
57078;DHT22;75967;50.970;4.574;2024-01-30T08:52:12;12.80;79.70
57078;DHT22;75967;50.970;4.574;2024-01-30T08:54:38;13.00;79.10
57078;DHT22;75967;50.970;4.574;2024-01-30T08:57:04;13.00;78.80
57078;DHT22;75967;50.970;4.574;2024-01-30T08:59:30;12.90;79.30
57078;DHT22;75967;50.970;4.574;2024-01-30T09:01:55;13.00;79.20
57078;DHT22;75967;50.970;4.574;2024-01-30T09:04:23;12.90;79.20
57078;DHT22;75967;50.970;4.574;2024-01-30T09:06:49;12.90;79.20
57078;DHT22;75967;50.970;4.574;2024-01-30T09:09:14;12.80;80.00
57078;DHT22;75967;50.970;4.574;2024-01-30T09:11:40;12.80;80.40
57078;DHT22;75967;50.970;4.574;2024-01-30T09:14:06;12.80;80.60
57078;DHT22;75967;50.970;4.574;2024-01-30T09:16:32;12.70;80.70
57078;DHT22;75967;50.970;4.574;2024-01-30T09:18:58;12.80;80.70
57078;DHT22;75967;50.970;4.574;2024-01-30T09:21:23;12.90;80.10
57078;DHT22;75967;50.970;4.574;2024-01-30T09:23:49;12.80;80.40
57078;DHT22;75967;50.970;4.574;2024-01-30T09:26:15;12.80;80.60
57078;DHT22;75967;50.970;4.574;2024-01-30T09:28:40;12.70;81.00
57078;DHT22;75967;50.970;4.574;2024-01-30T09:31:11;12.80;80.60
57078;DHT22;75967;50.970;4.574;2024-01-30T09:33:38;12.80;81.00
57078;DHT22;75967;50.970;4.574;2024-01-30T09:36:04;12.90;80.50
57078;DHT22;75967;50.970;4.574;2024-01-30T09:38:30;12.90;80.30
57078;DHT22;75967;50.970;4.574;2024-01-30T09:40:56;12.80;80.70
57078;DHT22;75967;50.970;4.574;2024-01-30T09:43:24;12.80;80.70
57078;DHT22;75967;50.970;4.574;2024-01-30T09:45:51;12.90;80.20
57078;DHT22;75967;50.970;4.574;2024-01-30T09:48:19;13.00;80.20
57078;DHT22;75967;50.970;4.574;2024-01-30T09:50:45;12.90;80.70
57078;DHT22;75967;50.970;4.574;2024-01-30T09:53:11;12.80;81.00
57078;DHT22;75967;50.970;4.574;2024-01-30T09:55:43;12.80;81.20
57078;DHT22;75967;50.970;4.574;2024-01-30T09:58:08;12.80;81.80
57078;DHT22;75967;50.970;4.574;2024-01-30T10:00:34;12.80;81.50
57078;DHT22;75967;50.970;4.574;2024-01-30T10:02:59;12.80;81.00
57078;DHT22;75967;50.970;4.574;2024-01-30T10:05:31;12.70;82.10
57078;DHT22;75967;50.970;4.574;2024-01-30T10:07:59;12.70;82.20
57078;DHT22;75967;50.970;4.574;2024-01-30T10:10:24;12.70;82.30
57078;DHT22;75967;50.970;4.574;2024-01-30T10:12:50;12.70;82.50
57078;DHT22;75967;50.970;4.574;2024-01-30T10:15:17;12.60;82.40
57078;DHT22;75967;50.970;4.574;2024-01-30T10:17:44;12.60;82.90
57078;DHT22;75967;50.970;4.574;2024-01-30T10:20:11;12.50;83.00
57078;DHT22;75967;50.970;4.574;2024-01-30T10:22:36;12.60;82.90
57078;DHT22;75967;50.970;4.574;2024-01-30T10:25:02;12.60;82.60
57078;DHT22;75967;50.970;4.574;2024-01-30T10:27:28;12.70;82.10
57078;DHT22;75967;50.970;4.574;2024-01-30T10:29:55;12.80;82.30
57078;DHT22;75967;50.970;4.574;2024-01-30T10:32:21;12.90;81.30
57078;DHT22;75967;50.970;4.574;2024-01-30T10:34:47;12.80;81.30
57078;DHT22;75967;50.970;4.574;2024-01-30T10:37:12;12.50;82.90
57078;DHT22;75967;50.970;4.574;2024-01-30T10:39:42;12.50;83.20
57078;DHT22;75967;50.970;4.574;2024-01-30T10:42:15;12.50;83.10
57078;DHT22;75967;50.970;4.574;2024-01-30T10:45:08;12.40;83.10
57078;DHT22;75967;50.970;4.574;2024-01-30T10:47:35;12.30;82.80
57078;DHT22;75967;50.970;4.574;2024-01-30T10:50:05;12.50;82.50
57078;DHT22;75967;50.970;4.574;2024-01-30T10:52:32;12.40;81.60
57078;DHT22;75967;50.970;4.574;2024-01-30T10:54:58;12.30;82.00
57078;DHT22;75967;50.970;4.574;2024-01-30T10:57:27;12.30;79.90
57078;DHT22;75967;50.970;4.574;2024-01-30T11:00:00;12.30;80.30
57078;DHT22;75967;50.970;4.574;2024-01-30T11:02:27;12.40;78.20
57078;DHT22;75967;50.970;4.574;2024-01-30T11:04:59;12.40;78.20
57078;DHT22;75967;50.970;4.574;2024-01-30T11:07:27;12.40;77.00
57078;DHT22;75967;50.970;4.574;2024-01-30T11:09:59;12.30;75.90
57078;DHT22;75967;50.970;4.574;2024-01-30T11:12:32;12.20;75.80
57078;DHT22;75967;50.970;4.574;2024-01-30T11:15:13;12.20;74.80
57078;DHT22;75967;50.970;4.574;2024-01-30T11:20:21;12.10;74.30
57078;DHT22;75967;50.970;4.574;2024-01-30T11:22:50;12.10;74.20
57078;DHT22;75967;50.970;4.574;2024-01-30T11:25:19;12.10;73.90
57078;DHT22;75967;50.970;4.574;2024-01-30T11:27:45;12.10;73.80
57078;DHT22;75967;50.970;4.574;2024-01-30T11:30:30;12.10;73.90
57078;DHT22;75967;50.970;4.574;2024-01-30T11:33:07;12.10;73.70
57078;DHT22;75967;50.970;4.574;2024-01-30T11:35:38;12.20;73.70
57078;DHT22;75967;50.970;4.574;2024-01-30T11:38:06;12.20;73.80
57078;DHT22;75967;50.970;4.574;2024-01-30T11:40:33;12.30;73.20
57078;DHT22;75967;50.970;4.574;2024-01-30T11:43:01;12.40;72.50
57078;DHT22;75967;50.970;4.574;2024-01-30T11:45:30;12.60;72.60
57078;DHT22;75967;50.970;4.574;2024-01-30T11:47:56;12.90;71.00
57078;DHT22;75967;50.970;4.574;2024-01-30T11:50:22;13.20;68.80
57078;DHT22;75967;50.970;4.574;2024-01-30T11:52:48;13.30;67.70
57078;DHT22;75967;50.970;4.574;2024-01-30T11:55:17;13.80;65.10
57078;DHT22;75967;50.970;4.574;2024-01-30T11:57:44;14.60;61.20
57078;DHT22;75967;50.970;4.574;2024-01-30T12:00:17;15.10;59.60
57078;DHT22;75967;50.970;4.574;2024-01-30T12:02:44;15.00;59.30
57078;DHT22;75967;50.970;4.574;2024-01-30T12:05:10;15.00;59.10
57078;DHT22;75967;50.970;4.574;2024-01-30T12:07:36;14.70;60.10
57078;DHT22;75967;50.970;4.574;2024-01-30T12:10:02;14.20;61.40
57078;DHT22;75967;50.970;4.574;2024-01-30T12:12:28;13.90;63.10
57078;DHT22;75967;50.970;4.574;2024-01-30T12:14:55;13.70;63.70
57078;DHT22;75967;50.970;4.574;2024-01-30T12:17:31;14.00;64.30
57078;DHT22;75967;50.970;4.574;2024-01-30T12:20:07;15.40;60.50
57078;DHT22;75967;50.970;4.574;2024-01-30T12:22:36;16.60;56.30
57078;DHT22;75967;50.970;4.574;2024-01-30T12:25:08;17.40;54.00
57078;DHT22;75967;50.970;4.574;2024-01-30T12:27:34;18.00;51.80
57078;DHT22;75967;50.970;4.574;2024-01-30T12:30:00;18.00;52.10
57078;DHT22;75967;50.970;4.574;2024-01-30T12:32:25;17.90;51.10
57078;DHT22;75967;50.970;4.574;2024-01-30T12:34:55;17.60;50.90
57078;DHT22;75967;50.970;4.574;2024-01-30T12:37:21;17.60;50.90
57078;DHT22;75967;50.970;4.574;2024-01-30T12:39:48;17.80;50.70
57078;DHT22;75967;50.970;4.574;2024-01-30T12:42:14;18.60;48.80
57078;DHT22;75967;50.970;4.574;2024-01-30T12:44:41;19.10;48.10
57078;DHT22;75967;50.970;4.574;2024-01-30T12:47:08;19.10;48.90
57078;DHT22;75967;50.970;4.574;2024-01-30T12:49:34;18.60;48.80
57078;DHT22;75967;50.970;4.574;2024-01-30T12:52:00;18.50;48.90
57078;DHT22;75967;50.970;4.574;2024-01-30T12:54:25;18.80;47.60
57078;DHT22;75967;50.970;4.574;2024-01-30T12:56:51;19.10;47.10
57078;DHT22;75967;50.970;4.574;2024-01-30T12:59:16;18.20;48.50
57078;DHT22;75967;50.970;4.574;2024-01-30T13:01:42;18.40;48.30
57078;DHT22;75967;50.970;4.574;2024-01-30T13:04:08;18.90;47.60
57078;DHT22;75967;50.970;4.574;2024-01-30T13:06:34;18.70;48.10
57078;DHT22;75967;50.970;4.574;2024-01-30T13:08:59;18.90;47.70
57078;DHT22;75967;50.970;4.574;2024-01-30T13:11:25;18.00;48.60
57078;DHT22;75967;50.970;4.574;2024-01-30T13:13:51;17.20;49.90
57078;DHT22;75967;50.970;4.574;2024-01-30T13:16:17;16.40;52.20
57078;DHT22;75967;50.970;4.574;2024-01-30T13:18:43;15.80;53.40
57078;DHT22;75967;50.970;4.574;2024-01-30T13:21:09;15.60;54.30
57078;DHT22;75967;50.970;4.574;2024-01-30T13:23:35;15.10;55.20
57078;DHT22;75967;50.970;4.574;2024-01-30T13:26:01;14.80;56.70
57078;DHT22;75967;50.970;4.574;2024-01-30T13:28:26;14.50;57.40
57078;DHT22;75967;50.970;4.574;2024-01-30T13:30:52;13.90;59.70
57078;DHT22;75967;50.970;4.574;2024-01-30T13:33:19;13.60;61.40
57078;DHT22;75967;50.970;4.574;2024-01-30T13:35:44;13.50;61.90
57078;DHT22;75967;50.970;4.574;2024-01-30T13:38:10;13.50;62.30
57078;DHT22;75967;50.970;4.574;2024-01-30T13:40:35;13.40;62.90
57078;DHT22;75967;50.970;4.574;2024-01-30T13:43:01;13.20;63.30
57078;DHT22;75967;50.970;4.574;2024-01-30T13:45:27;12.90;64.10
57078;DHT22;75967;50.970;4.574;2024-01-30T13:47:52;12.70;64.50
57078;DHT22;75967;50.970;4.574;2024-01-30T13:50:18;12.70;65.30
57078;DHT22;75967;50.970;4.574;2024-01-30T13:52:44;12.60;66.40
57078;DHT22;75967;50.970;4.574;2024-01-30T13:55:10;12.50;66.00
57078;DHT22;75967;50.970;4.574;2024-01-30T13:57:36;12.40;66.70
57078;DHT22;75967;50.970;4.574;2024-01-30T14:00:05;12.50;66.60
57078;DHT22;75967;50.970;4.574;2024-01-30T14:02:34;12.30;67.00
57078;DHT22;75967;50.970;4.574;2024-01-30T14:05:00;12.20;67.90
57078;DHT22;75967;50.970;4.574;2024-01-30T14:07:25;12.00;68.80
57078;DHT22;75967;50.970;4.574;2024-01-30T14:09:51;12.00;69.80
57078;DHT22;75967;50.970;4.574;2024-01-30T14:12:17;11.80;70.80
57078;DHT22;75967;50.970;4.574;2024-01-30T14:14:42;11.80;71.10
57078;DHT22;75967;50.970;4.574;2024-01-30T14:17:08;11.60;71.50
57078;DHT22;75967;50.970;4.574;2024-01-30T14:19:35;11.60;72.20
57078;DHT22;75967;50.970;4.574;2024-01-30T14:22:01;11.60;71.90
57078;DHT22;75967;50.970;4.574;2024-01-30T14:24:27;11.70;71.60
57078;DHT22;75967;50.970;4.574;2024-01-30T14:26:52;11.60;71.30
57078;DHT22;75967;50.970;4.574;2024-01-30T14:29:18;11.50;71.50
57078;DHT22;75967;50.970;4.574;2024-01-30T14:31:44;11.40;72.20
57078;DHT22;75967;50.970;4.574;2024-01-30T14:34:09;11.30;72.40
57078;DHT22;75967;50.970;4.574;2024-01-30T14:36:37;11.20;72.70
57078;DHT22;75967;50.970;4.574;2024-01-30T14:39:03;11.30;72.70
57078;DHT22;75967;50.970;4.574;2024-01-30T14:41:29;11.20;72.90
57078;DHT22;75967;50.970;4.574;2024-01-30T14:43:55;11.10;74.10
57078;DHT22;75967;50.970;4.574;2024-01-30T14:46:21;10.90;74.90
57078;DHT22;75967;50.970;4.574;2024-01-30T14:48:47;10.90;74.70
57078;DHT22;75967;50.970;4.574;2024-01-30T14:51:13;10.80;74.90
57078;DHT22;75967;50.970;4.574;2024-01-30T14:53:39;10.80;75.20
57078;DHT22;75967;50.970;4.574;2024-01-30T14:56:05;10.80;74.80
57078;DHT22;75967;50.970;4.574;2024-01-30T14:58:31;10.90;74.60
57078;DHT22;75967;50.970;4.574;2024-01-30T15:00:57;10.90;74.20
57078;DHT22;75967;50.970;4.574;2024-01-30T15:03:23;11.00;74.00
57078;DHT22;75967;50.970;4.574;2024-01-30T15:05:48;10.80;74.10
57078;DHT22;75967;50.970;4.574;2024-01-30T15:08:14;10.70;74.50
57078;DHT22;75967;50.970;4.574;2024-01-30T15:10:40;10.80;74.60
57078;DHT22;75967;50.970;4.574;2024-01-30T15:13:05;10.80;74.10
57078;DHT22;75967;50.970;4.574;2024-01-30T15:15:31;10.90;73.50
57078;DHT22;75967;50.970;4.574;2024-01-30T15:17:57;10.90;73.60
57078;DHT22;75967;50.970;4.574;2024-01-30T15:20:23;10.90;74.10
57078;DHT22;75967;50.970;4.574;2024-01-30T15:22:49;10.80;74.10
57078;DHT22;75967;50.970;4.574;2024-01-30T15:25:15;10.80;74.00
57078;DHT22;75967;50.970;4.574;2024-01-30T15:27:40;10.80;74.10
57078;DHT22;75967;50.970;4.574;2024-01-30T15:30:07;10.60;74.90